sensor_id;sensor_type;location;lat;lon;timestamp;temperature;humidity
7472;DHT22;3777;48.722;8.110;2023-08-06T00:01:01;17.00;99.90
7472;DHT22;3777;48.722;8.110;2023-08-06T00:03:28;16.90;99.90
7472;DHT22;3777;48.722;8.110;2023-08-06T00:05:55;16.90;99.90
7472;DHT22;3777;48.722;8.110;2023-08-06T00:08:23;16.90;99.90
7472;DHT22;3777;48.722;8.110;2023-08-06T00:10:50;16.90;99.90
7472;DHT22;3777;48.722;8.110;2023-08-06T00:13:17;16.90;99.90
7472;DHT22;3777;48.722;8.110;2023-08-06T00:15:44;16.80;99.90
7472;DHT22;3777;48.722;8.110;2023-08-06T00:18:11;16.70;99.90
7472;DHT22;3777;48.722;8.110;2023-08-06T00:20:39;16.70;99.90
7472;DHT22;3777;48.722;8.110;2023-08-06T00:23:06;16.60;99.90
7472;DHT22;3777;48.722;8.110;2023-08-06T00:25:35;16.70;99.90
7472;DHT22;3777;48.722;8.110;2023-08-06T00:28:02;16.80;99.90
7472;DHT22;3777;48.722;8.110;2023-08-06T00:30:29;16.90;99.90
7472;DHT22;3777;48.722;8.110;2023-08-06T00:32:56;16.90;99.90
7472;DHT22;3777;48.722;8.110;2023-08-06T00:35:23;17.00;99.90
7472;DHT22;3777;48.722;8.110;2023-08-06T00:37:50;16.90;99.90
7472;DHT22;3777;48.722;8.110;2023-08-06T00:40:20;16.90;99.90
7472;DHT22;3777;48.722;8.110;2023-08-06T00:42:48;17.00;99.90
7472;DHT22;3777;48.722;8.110;2023-08-06T00:45:16;17.00;99.90
7472;DHT22;3777;48.722;8.110;2023-08-06T00:47:43;17.10;99.90
7472;DHT22;3777;48.722;8.110;2023-08-06T00:50:10;17.20;99.90
7472;DHT22;3777;48.722;8.110;2023-08-06T00:52:37;17.20;99.90
7472;DHT22;3777;48.722;8.110;2023-08-06T00:55:05;17.20;99.90
7472;DHT22;3777;48.722;8.110;2023-08-06T00:57:32;17.20;99.90
7472;DHT22;3777;48.722;8.110;2023-08-06T01:00:01;17.20;99.90
7472;DHT22;3777;48.722;8.110;2023-08-06T01:02:29;17.20;99.90
7472;DHT22;3777;48.722;8.110;2023-08-06T01:04:56;17.20;99.90
7472;DHT22;3777;48.722;8.110;2023-08-06T01:07:35;17.20;99.90
7472;DHT22;3777;48.722;8.110;2023-08-06T01:10:19;17.20;99.90
7472;DHT22;3777;48.722;8.110;2023-08-06T01:12:54;17.20;99.90
7472;DHT22;3777;48.722;8.110;2023-08-06T01:15:29;17.20;99.90
7472;DHT22;3777;48.722;8.110;2023-08-06T01:17:57;17.30;99.90
7472;DHT22;3777;48.722;8.110;2023-08-06T01:20:29;17.30;99.90
7472;DHT22;3777;48.722;8.110;2023-08-06T01:22:56;17.20;99.90
7472;DHT22;3777;48.722;8.110;2023-08-06T01:25:28;17.40;99.90
7472;DHT22;3777;48.722;8.110;2023-08-06T01:28:02;17.40;99.90
7472;DHT22;3777;48.722;8.110;2023-08-06T01:30:33;17.50;99.90
7472;DHT22;3777;48.722;8.110;2023-08-06T01:33:04;17.50;99.90
7472;DHT22;3777;48.722;8.110;2023-08-06T01:35:33;17.50;99.90
7472;DHT22;3777;48.722;8.110;2023-08-06T01:38:02;17.50;99.90
7472;DHT22;3777;48.722;8.110;2023-08-06T01:40:29;17.50;99.90
7472;DHT22;3777;48.722;8.110;2023-08-06T01:42:57;17.60;99.90
7472;DHT22;3777;48.722;8.110;2023-08-06T01:45:24;17.60;99.90
7472;DHT22;3777;48.722;8.110;2023-08-06T01:47:51;17.60;99.90
7472;DHT22;3777;48.722;8.110;2023-08-06T01:50:18;17.60;99.90
7472;DHT22;3777;48.722;8.110;2023-08-06T01:52:46;17.60;99.90
7472;DHT22;3777;48.722;8.110;2023-08-06T01:55:13;17.60;99.90
7472;DHT22;3777;48.722;8.110;2023-08-06T01:57:40;17.60;99.90
7472;DHT22;3777;48.722;8.110;2023-08-06T02:00:08;17.60;99.90
7472;DHT22;3777;48.722;8.110;2023-08-06T02:02:35;17.50;99.90
7472;DHT22;3777;48.722;8.110;2023-08-06T02:05:02;17.40;99.90
7472;DHT22;3777;48.722;8.110;2023-08-06T02:07:29;17.40;99.90
7472;DHT22;3777;48.722;8.110;2023-08-06T02:09:58;17.40;99.90
7472;DHT22;3777;48.722;8.110;2023-08-06T02:12:24;17.40;99.90
7472;DHT22;3777;48.722;8.110;2023-08-06T02:14:51;17.30;99.90
7472;DHT22;3777;48.722;8.110;2023-08-06T02:17:18;17.10;99.90
7472;DHT22;3777;48.722;8.110;2023-08-06T02:19:45;17.10;99.90
7472;DHT22;3777;48.722;8.110;2023-08-06T02:22:12;17.10;99.90
7472;DHT22;3777;48.722;8.110;2023-08-06T02:24:39;17.10;99.90
7472;DHT22;3777;48.722;8.110;2023-08-06T02:27:07;16.90;99.90
7472;DHT22;3777;48.722;8.110;2023-08-06T02:29:34;16.90;99.90
7472;DHT22;3777;48.722;8.110;2023-08-06T02:32:01;16.90;99.90
7472;DHT22;3777;48.722;8.110;2023-08-06T02:34:28;16.80;99.90
7472;DHT22;3777;48.722;8.110;2023-08-06T02:36:55;16.80;99.90
7472;DHT22;3777;48.722;8.110;2023-08-06T02:39:22;16.80;99.90
7472;DHT22;3777;48.722;8.110;2023-08-06T02:41:49;16.80;99.90
7472;DHT22;3777;48.722;8.110;2023-08-06T02:44:17;16.80;99.90
7472;DHT22;3777;48.722;8.110;2023-08-06T02:46:44;16.80;99.90
7472;DHT22;3777;48.722;8.110;2023-08-06T02:49:11;16.70;99.90
7472;DHT22;3777;48.722;8.110;2023-08-06T02:51:38;16.70;99.90
7472;DHT22;3777;48.722;8.110;2023-08-06T02:54:05;16.60;99.90
7472;DHT22;3777;48.722;8.110;2023-08-06T02:56:32;16.60;99.90
7472;DHT22;3777;48.722;8.110;2023-08-06T02:58:59;16.50;99.90
7472;DHT22;3777;48.722;8.110;2023-08-06T03:01:28;16.50;99.90
7472;DHT22;3777;48.722;8.110;2023-08-06T03:03:55;16.40;99.90
7472;DHT22;3777;48.722;8.110;2023-08-06T03:06:22;16.40;99.90
7472;DHT22;3777;48.722;8.110;2023-08-06T03:08:48;16.40;99.90
7472;DHT22;3777;48.722;8.110;2023-08-06T03:11:15;16.30;99.90
7472;DHT22;3777;48.722;8.110;2023-08-06T03:13:42;16.30;99.90
7472;DHT22;3777;48.722;8.110;2023-08-06T03:16:09;16.30;99.90
7472;DHT22;3777;48.722;8.110;2023-08-06T03:18:38;16.30;99.90
7472;DHT22;3777;48.722;8.110;2023-08-06T03:21:05;16.40;99.90
7472;DHT22;3777;48.722;8.110;2023-08-06T03:23:32;16.40;99.90
7472;DHT22;3777;48.722;8.110;2023-08-06T03:26:01;16.40;99.90
7472;DHT22;3777;48.722;8.110;2023-08-06T03:28:29;16.40;99.90
7472;DHT22;3777;48.722;8.110;2023-08-06T03:30:59;16.20;99.90
7472;DHT22;3777;48.722;8.110;2023-08-06T03:33:27;16.20;99.90
7472;DHT22;3777;48.722;8.110;2023-08-06T03:35:55;16.20;99.90
7472;DHT22;3777;48.722;8.110;2023-08-06T03:38:22;16.30;99.90
7472;DHT22;3777;48.722;8.110;2023-08-06T03:40:49;16.30;99.90
7472;DHT22;3777;48.722;8.110;2023-08-06T03:43:16;16.20;99.90
7472;DHT22;3777;48.722;8.110;2023-08-06T03:45:43;16.20;99.90
7472;DHT22;3777;48.722;8.110;2023-08-06T03:48:11;16.20;99.90
7472;DHT22;3777;48.722;8.110;2023-08-06T03:50:38;16.30;99.90
7472;DHT22;3777;48.722;8.110;2023-08-06T03:53:06;16.40;99.90
7472;DHT22;3777;48.722;8.110;2023-08-06T03:55:33;16.40;99.90
7472;DHT22;3777;48.722;8.110;2023-08-06T03:58:00;16.40;99.90
7472;DHT22;3777;48.722;8.110;2023-08-06T04:00:27;16.40;99.90
7472;DHT22;3777;48.722;8.110;2023-08-06T04:02:54;16.20;99.90
7472;DHT22;3777;48.722;8.110;2023-08-06T04:05:24;16.20;99.90
7472;DHT22;3777;48.722;8.110;2023-08-06T04:07:51;16.30;99.90
7472;DHT22;3777;48.722;8.110;2023-08-06T04:10:19;16.20;99.90
7472;DHT22;3777;48.722;8.110;2023-08-06T04:12:46;16.30;99.90
7472;DHT22;3777;48.722;8.110;2023-08-06T04:15:13;16.30;99.90
7472;DHT22;3777;48.722;8.110;2023-08-06T04:17:40;16.30;99.90
7472;DHT22;3777;48.722;8.110;2023-08-06T04:20:08;16.40;99.90
7472;DHT22;3777;48.722;8.110;2023-08-06T04:22:35;16.40;99.90
7472;DHT22;3777;48.722;8.110;2023-08-06T04:25:02;16.50;99.90
7472;DHT22;3777;48.722;8.110;2023-08-06T04:27:30;16.60;99.90
7472;DHT22;3777;48.722;8.110;2023-08-06T04:29:57;16.60;99.90
7472;DHT22;3777;48.722;8.110;2023-08-06T04:32:24;16.60;99.90
7472;DHT22;3777;48.722;8.110;2023-08-06T04:34:51;16.60;99.90
7472;DHT22;3777;48.722;8.110;2023-08-06T04:37:18;16.60;99.90
7472;DHT22;3777;48.722;8.110;2023-08-06T04:39:45;16.60;99.90
7472;DHT22;3777;48.722;8.110;2023-08-06T04:42:12;16.40;99.90
7472;DHT22;3777;48.722;8.110;2023-08-06T04:44:40;16.40;99.90
7472;DHT22;3777;48.722;8.110;2023-08-06T04:47:07;16.40;99.90
7472;DHT22;3777;48.722;8.110;2023-08-06T04:49:34;16.30;99.90
7472;DHT22;3777;48.722;8.110;2023-08-06T04:52:02;16.20;99.90
7472;DHT22;3777;48.722;8.110;2023-08-06T04:54:29;16.40;99.90
7472;DHT22;3777;48.722;8.110;2023-08-06T04:56:56;16.40;99.90
7472;DHT22;3777;48.722;8.110;2023-08-06T04:59:23;16.50;99.90
7472;DHT22;3777;48.722;8.110;2023-08-06T05:01:51;16.40;99.90
7472;DHT22;3777;48.722;8.110;2023-08-06T05:04:18;16.30;99.90
7472;DHT22;3777;48.722;8.110;2023-08-06T05:06:45;16.20;99.90
7472;DHT22;3777;48.722;8.110;2023-08-06T05:09:12;16.20;99.90
7472;DHT22;3777;48.722;8.110;2023-08-06T05:11:39;16.20;99.90
7472;DHT22;3777;48.722;8.110;2023-08-06T05:14:06;16.20;99.90
7472;DHT22;3777;48.722;8.110;2023-08-06T05:16:33;16.10;99.90
7472;DHT22;3777;48.722;8.110;2023-08-06T05:19:01;16.10;99.90
7472;DHT22;3777;48.722;8.110;2023-08-06T05:21:28;16.10;99.90
7472;DHT22;3777;48.722;8.110;2023-08-06T05:23:55;16.00;99.90
7472;DHT22;3777;48.722;8.110;2023-08-06T05:26:22;16.00;99.90
7472;DHT22;3777;48.722;8.110;2023-08-06T05:28:49;16.00;99.90
7472;DHT22;3777;48.722;8.110;2023-08-06T05:31:16;15.90;99.90
7472;DHT22;3777;48.722;8.110;2023-08-06T05:33:43;15.80;99.90
7472;DHT22;3777;48.722;8.110;2023-08-06T05:36:11;15.80;99.90
7472;DHT22;3777;48.722;8.110;2023-08-06T05:38:38;15.90;99.90
7472;DHT22;3777;48.722;8.110;2023-08-06T05:41:05;15.80;99.90
7472;DHT22;3777;48.722;8.110;2023-08-06T05:43:32;15.80;99.90
7472;DHT22;3777;48.722;8.110;2023-08-06T05:45:59;15.80;99.90
7472;DHT22;3777;48.722;8.110;2023-08-06T05:48:26;15.80;99.90
7472;DHT22;3777;48.722;8.110;2023-08-06T05:50:53;15.90;99.90
7472;DHT22;3777;48.722;8.110;2023-08-06T05:53:22;15.90;99.90
7472;DHT22;3777;48.722;8.110;2023-08-06T05:55:48;16.00;99.90
7472;DHT22;3777;48.722;8.110;2023-08-06T05:58:15;16.00;99.90
7472;DHT22;3777;48.722;8.110;2023-08-06T06:00:43;16.10;99.90
7472;DHT22;3777;48.722;8.110;2023-08-06T06:03:10;16.10;99.90
7472;DHT22;3777;48.722;8.110;2023-08-06T06:05:38;16.10;99.90
7472;DHT22;3777;48.722;8.110;2023-08-06T06:08:05;16.10;99.90
7472;DHT22;3777;48.722;8.110;2023-08-06T06:10:33;16.00;99.90
7472;DHT22;3777;48.722;8.110;2023-08-06T06:13:01;16.10;99.90
7472;DHT22;3777;48.722;8.110;2023-08-06T06:15:28;15.90;99.90
7472;DHT22;3777;48.722;8.110;2023-08-06T06:17:55;15.70;99.90
7472;DHT22;3777;48.722;8.110;2023-08-06T06:20:22;15.80;99.90
7472;DHT22;3777;48.722;8.110;2023-08-06T06:22:49;15.80;99.90
7472;DHT22;3777;48.722;8.110;2023-08-06T06:25:17;15.70;99.90
7472;DHT22;3777;48.722;8.110;2023-08-06T06:27:46;15.60;99.90
7472;DHT22;3777;48.722;8.110;2023-08-06T06:30:13;15.50;99.90
7472;DHT22;3777;48.722;8.110;2023-08-06T06:32:40;15.50;99.90
7472;DHT22;3777;48.722;8.110;2023-08-06T06:35:08;15.60;99.90
7472;DHT22;3777;48.722;8.110;2023-08-06T06:37:35;15.60;99.90
7472;DHT22;3777;48.722;8.110;2023-08-06T06:40:02;15.40;99.90
7472;DHT22;3777;48.722;8.110;2023-08-06T06:42:32;15.50;99.90
7472;DHT22;3777;48.722;8.110;2023-08-06T06:45:00;15.40;99.90
7472;DHT22;3777;48.722;8.110;2023-08-06T06:47:27;15.40;99.90
7472;DHT22;3777;48.722;8.110;2023-08-06T06:49:54;15.50;99.90
7472;DHT22;3777;48.722;8.110;2023-08-06T06:52:21;15.50;99.90
7472;DHT22;3777;48.722;8.110;2023-08-06T06:54:48;15.50;99.90
7472;DHT22;3777;48.722;8.110;2023-08-06T06:57:15;15.40;99.90
7472;DHT22;3777;48.722;8.110;2023-08-06T06:59:42;15.50;99.90
7472;DHT22;3777;48.722;8.110;2023-08-06T07:02:10;15.40;99.90
7472;DHT22;3777;48.722;8.110;2023-08-06T07:04:37;15.40;99.90
7472;DHT22;3777;48.722;8.110;2023-08-06T07:07:04;15.40;99.90
7472;DHT22;3777;48.722;8.110;2023-08-06T07:09:31;15.30;99.90
7472;DHT22;3777;48.722;8.110;2023-08-06T07:11:58;15.20;99.90
7472;DHT22;3777;48.722;8.110;2023-08-06T07:14:25;15.10;99.90
7472;DHT22;3777;48.722;8.110;2023-08-06T07:16:52;14.90;99.90
7472;DHT22;3777;48.722;8.110;2023-08-06T07:19:21;14.90;99.90
7472;DHT22;3777;48.722;8.110;2023-08-06T07:21:48;14.90;99.90
7472;DHT22;3777;48.722;8.110;2023-08-06T07:24:15;14.90;99.90
7472;DHT22;3777;48.722;8.110;2023-08-06T07:26:42;14.70;99.90
7472;DHT22;3777;48.722;8.110;2023-08-06T07:29:09;14.80;99.90
7472;DHT22;3777;48.722;8.110;2023-08-06T07:31:35;14.80;99.90
7472;DHT22;3777;48.722;8.110;2023-08-06T07:34:02;14.80;99.90
7472;DHT22;3777;48.722;8.110;2023-08-06T07:36:31;14.90;99.90
7472;DHT22;3777;48.722;8.110;2023-08-06T07:38:58;14.90;99.90
7472;DHT22;3777;48.722;8.110;2023-08-06T07:41:25;14.90;99.90
7472;DHT22;3777;48.722;8.110;2023-08-06T07:43:52;15.00;99.90
7472;DHT22;3777;48.722;8.110;2023-08-06T07:46:19;14.90;99.90
7472;DHT22;3777;48.722;8.110;2023-08-06T07:48:46;15.00;99.90
7472;DHT22;3777;48.722;8.110;2023-08-06T07:51:13;15.00;99.90
7472;DHT22;3777;48.722;8.110;2023-08-06T07:53:41;15.00;99.90
7472;DHT22;3777;48.722;8.110;2023-08-06T07:56:08;15.20;99.90
7472;DHT22;3777;48.722;8.110;2023-08-06T07:58:35;15.40;99.90
7472;DHT22;3777;48.722;8.110;2023-08-06T08:01:02;15.50;99.90
7472;DHT22;3777;48.722;8.110;2023-08-06T08:03:29;15.50;99.90
7472;DHT22;3777;48.722;8.110;2023-08-06T08:05:56;15.60;99.90
7472;DHT22;3777;48.722;8.110;2023-08-06T08:08:24;15.70;99.90
7472;DHT22;3777;48.722;8.110;2023-08-06T08:10:52;15.90;99.90
7472;DHT22;3777;48.722;8.110;2023-08-06T08:13:20;16.00;99.90
7472;DHT22;3777;48.722;8.110;2023-08-06T08:15:47;16.00;99.90
7472;DHT22;3777;48.722;8.110;2023-08-06T08:18:14;15.80;99.90
7472;DHT22;3777;48.722;8.110;2023-08-06T08:20:41;15.70;99.90
7472;DHT22;3777;48.722;8.110;2023-08-06T08:23:08;15.60;99.90
7472;DHT22;3777;48.722;8.110;2023-08-06T08:25:35;15.40;99.90
7472;DHT22;3777;48.722;8.110;2023-08-06T08:28:03;15.30;99.90
7472;DHT22;3777;48.722;8.110;2023-08-06T08:30:30;15.30;99.90
7472;DHT22;3777;48.722;8.110;2023-08-06T08:32:57;15.40;99.90
7472;DHT22;3777;48.722;8.110;2023-08-06T08:35:27;15.50;99.90
7472;DHT22;3777;48.722;8.110;2023-08-06T08:37:54;15.60;99.90
7472;DHT22;3777;48.722;8.110;2023-08-06T08:40:24;15.60;99.90
7472;DHT22;3777;48.722;8.110;2023-08-06T08:42:53;15.60;99.90
7472;DHT22;3777;48.722;8.110;2023-08-06T08:45:22;15.80;99.90
7472;DHT22;3777;48.722;8.110;2023-08-06T08:47:50;15.80;99.90
7472;DHT22;3777;48.722;8.110;2023-08-06T08:50:18;15.60;99.90
7472;DHT22;3777;48.722;8.110;2023-08-06T08:52:45;15.80;99.90
7472;DHT22;3777;48.722;8.110;2023-08-06T08:55:15;15.80;99.90
7472;DHT22;3777;48.722;8.110;2023-08-06T08:57:42;15.90;99.90
7472;DHT22;3777;48.722;8.110;2023-08-06T09:00:09;15.80;99.90
7472;DHT22;3777;48.722;8.110;2023-08-06T09:02:38;15.80;99.90
7472;DHT22;3777;48.722;8.110;2023-08-06T09:05:07;15.70;99.90
7472;DHT22;3777;48.722;8.110;2023-08-06T09:07:38;15.60;99.90
7472;DHT22;3777;48.722;8.110;2023-08-06T09:10:10;15.50;99.90
7472;DHT22;3777;48.722;8.110;2023-08-06T09:12:37;15.40;99.90
7472;DHT22;3777;48.722;8.110;2023-08-06T09:15:05;15.60;99.90
7472;DHT22;3777;48.722;8.110;2023-08-06T09:17:32;15.60;99.90
7472;DHT22;3777;48.722;8.110;2023-08-06T09:20:09;15.70;99.90
7472;DHT22;3777;48.722;8.110;2023-08-06T09:22:36;15.50;99.90
7472;DHT22;3777;48.722;8.110;2023-08-06T09:25:06;15.40;99.90
7472;DHT22;3777;48.722;8.110;2023-08-06T09:27:35;15.50;99.90
7472;DHT22;3777;48.722;8.110;2023-08-06T09:30:03;15.60;99.90
7472;DHT22;3777;48.722;8.110;2023-08-06T09:32:45;15.70;99.90
7472;DHT22;3777;48.722;8.110;2023-08-06T09:35:17;15.80;99.90
7472;DHT22;3777;48.722;8.110;2023-08-06T09:37:45;16.00;99.90
7472;DHT22;3777;48.722;8.110;2023-08-06T09:40:29;16.00;99.90
7472;DHT22;3777;48.722;8.110;2023-08-06T09:42:57;16.00;99.90
7472;DHT22;3777;48.722;8.110;2023-08-06T09:45:30;16.10;99.90
7472;DHT22;3777;48.722;8.110;2023-08-06T09:48:01;16.20;99.90
7472;DHT22;3777;48.722;8.110;2023-08-06T09:50:32;16.20;99.90
7472;DHT22;3777;48.722;8.110;2023-08-06T09:52:59;16.30;99.90
7472;DHT22;3777;48.722;8.110;2023-08-06T09:55:27;16.40;99.90
7472;DHT22;3777;48.722;8.110;2023-08-06T09:57:54;16.50;99.90
7472;DHT22;3777;48.722;8.110;2023-08-06T10:00:22;16.50;99.90
7472;DHT22;3777;48.722;8.110;2023-08-06T10:02:50;16.50;99.90
7472;DHT22;3777;48.722;8.110;2023-08-06T10:05:21;16.50;99.90
7472;DHT22;3777;48.722;8.110;2023-08-06T10:07:50;16.40;99.90
7472;DHT22;3777;48.722;8.110;2023-08-06T10:10:18;16.40;99.90
7472;DHT22;3777;48.722;8.110;2023-08-06T10:12:49;16.30;99.90
7472;DHT22;3777;48.722;8.110;2023-08-06T10:15:19;16.30;99.90
7472;DHT22;3777;48.722;8.110;2023-08-06T10:17:49;16.10;99.90
7472;DHT22;3777;48.722;8.110;2023-08-06T10:20:17;16.10;99.90
7472;DHT22;3777;48.722;8.110;2023-08-06T10:23:01;16.10;99.90
7472;DHT22;3777;48.722;8.110;2023-08-06T10:25:31;16.20;99.90
7472;DHT22;3777;48.722;8.110;2023-08-06T10:27:59;16.10;99.90
7472;DHT22;3777;48.722;8.110;2023-08-06T10:30:27;16.10;99.90
7472;DHT22;3777;48.722;8.110;2023-08-06T10:32:57;16.20;99.90
7472;DHT22;3777;48.722;8.110;2023-08-06T10:35:30;16.20;99.90
7472;DHT22;3777;48.722;8.110;2023-08-06T10:38:05;16.20;99.90
7472;DHT22;3777;48.722;8.110;2023-08-06T10:40:33;16.10;99.90
7472;DHT22;3777;48.722;8.110;2023-08-06T10:43:00;16.10;99.90
7472;DHT22;3777;48.722;8.110;2023-08-06T10:45:27;16.10;99.90
7472;DHT22;3777;48.722;8.110;2023-08-06T10:47:56;16.10;99.90
7472;DHT22;3777;48.722;8.110;2023-08-06T10:50:24;16.20;99.90
7472;DHT22;3777;48.722;8.110;2023-08-06T10:52:51;16.30;99.90
7472;DHT22;3777;48.722;8.110;2023-08-06T10:55:29;16.20;99.90
7472;DHT22;3777;48.722;8.110;2023-08-06T10:57:58;16.20;99.90
7472;DHT22;3777;48.722;8.110;2023-08-06T11:00:26;16.10;99.90
7472;DHT22;3777;48.722;8.110;2023-08-06T11:02:54;16.10;99.90
7472;DHT22;3777;48.722;8.110;2023-08-06T11:05:21;16.00;99.90
7472;DHT22;3777;48.722;8.110;2023-08-06T11:07:48;16.00;99.90
7472;DHT22;3777;48.722;8.110;2023-08-06T11:10:17;16.10;99.90
7472;DHT22;3777;48.722;8.110;2023-08-06T11:12:45;16.10;99.90
7472;DHT22;3777;48.722;8.110;2023-08-06T11:15:12;16.20;99.90
7472;DHT22;3777;48.722;8.110;2023-08-06T11:17:40;16.20;99.90
7472;DHT22;3777;48.722;8.110;2023-08-06T11:20:08;16.30;99.90
7472;DHT22;3777;48.722;8.110;2023-08-06T11:22:36;16.30;99.90
7472;DHT22;3777;48.722;8.110;2023-08-06T11:25:05;16.40;99.90
7472;DHT22;3777;48.722;8.110;2023-08-06T11:27:32;16.50;99.90
7472;DHT22;3777;48.722;8.110;2023-08-06T11:30:00;16.60;99.90
7472;DHT22;3777;48.722;8.110;2023-08-06T11:32:27;16.60;99.90
7472;DHT22;3777;48.722;8.110;2023-08-06T11:34:55;16.70;99.90
7472;DHT22;3777;48.722;8.110;2023-08-06T11:37:22;16.60;99.90
7472;DHT22;3777;48.722;8.110;2023-08-06T11:39:51;16.70;99.90
7472;DHT22;3777;48.722;8.110;2023-08-06T11:42:18;16.80;99.90
7472;DHT22;3777;48.722;8.110;2023-08-06T11:44:45;16.70;99.90
7472;DHT22;3777;48.722;8.110;2023-08-06T11:47:15;16.70;99.90
7472;DHT22;3777;48.722;8.110;2023-08-06T11:49:44;16.70;99.90
7472;DHT22;3777;48.722;8.110;2023-08-06T11:52:17;16.80;99.90
7472;DHT22;3777;48.722;8.110;2023-08-06T11:54:45;16.80;99.90
7472;DHT22;3777;48.722;8.110;2023-08-06T11:57:13;16.80;99.90
7472;DHT22;3777;48.722;8.110;2023-08-06T11:59:40;16.80;99.90
7472;DHT22;3777;48.722;8.110;2023-08-06T12:02:09;16.90;99.90
7472;DHT22;3777;48.722;8.110;2023-08-06T12:05:02;16.90;99.90
7472;DHT22;3777;48.722;8.110;2023-08-06T12:07:31;17.00;99.90
7472;DHT22;3777;48.722;8.110;2023-08-06T12:09:58;17.10;99.90
7472;DHT22;3777;48.722;8.110;2023-08-06T12:12:28;17.20;99.90
7472;DHT22;3777;48.722;8.110;2023-08-06T12:14:55;17.20;99.90
7472;DHT22;3777;48.722;8.110;2023-08-06T12:17:22;17.40;99.90
7472;DHT22;3777;48.722;8.110;2023-08-06T12:19:49;17.40;99.90
7472;DHT22;3777;48.722;8.110;2023-08-06T12:22:18;17.60;99.90
7472;DHT22;3777;48.722;8.110;2023-08-06T12:24:46;17.70;99.90
7472;DHT22;3777;48.722;8.110;2023-08-06T12:27:13;17.80;99.90
7472;DHT22;3777;48.722;8.110;2023-08-06T12:29:41;17.90;99.90
7472;DHT22;3777;48.722;8.110;2023-08-06T12:32:13;17.80;99.90
7472;DHT22;3777;48.722;8.110;2023-08-06T12:34:41;17.80;99.90
7472;DHT22;3777;48.722;8.110;2023-08-06T12:37:08;17.70;99.90
7472;DHT22;3777;48.722;8.110;2023-08-06T12:39:37;17.80;99.90
7472;DHT22;3777;48.722;8.110;2023-08-06T12:42:05;17.90;99.90
7472;DHT22;3777;48.722;8.110;2023-08-06T12:44:32;18.00;99.90
7472;DHT22;3777;48.722;8.110;2023-08-06T12:46:59;18.20;99.90
7472;DHT22;3777;48.722;8.110;2023-08-06T12:49:26;18.30;99.90
7472;DHT22;3777;48.722;8.110;2023-08-06T12:51:54;18.50;99.90
7472;DHT22;3777;48.722;8.110;2023-08-06T12:54:22;18.70;99.90
7472;DHT22;3777;48.722;8.110;2023-08-06T12:56:50;18.80;99.90
7472;DHT22;3777;48.722;8.110;2023-08-06T12:59:18;18.70;99.90
7472;DHT22;3777;48.722;8.110;2023-08-06T13:01:45;18.90;99.90
7472;DHT22;3777;48.722;8.110;2023-08-06T13:04:13;19.00;99.90
7472;DHT22;3777;48.722;8.110;2023-08-06T13:06:40;18.80;99.90
7472;DHT22;3777;48.722;8.110;2023-08-06T13:09:08;19.00;99.90
7472;DHT22;3777;48.722;8.110;2023-08-06T13:11:35;19.20;99.90
7472;DHT22;3777;48.722;8.110;2023-08-06T13:14:09;19.50;99.90
7472;DHT22;3777;48.722;8.110;2023-08-06T13:16:37;19.70;99.90
7472;DHT22;3777;48.722;8.110;2023-08-06T13:19:04;19.70;99.90
7472;DHT22;3777;48.722;8.110;2023-08-06T13:21:33;19.60;99.90
7472;DHT22;3777;48.722;8.110;2023-08-06T13:24:01;19.30;99.90
7472;DHT22;3777;48.722;8.110;2023-08-06T13:26:28;19.30;99.90
7472;DHT22;3777;48.722;8.110;2023-08-06T13:28:56;19.40;99.90
7472;DHT22;3777;48.722;8.110;2023-08-06T13:31:25;19.20;99.90
7472;DHT22;3777;48.722;8.110;2023-08-06T13:33:53;19.30;99.90
7472;DHT22;3777;48.722;8.110;2023-08-06T13:36:21;19.40;99.90
7472;DHT22;3777;48.722;8.110;2023-08-06T13:38:48;19.20;99.90
7472;DHT22;3777;48.722;8.110;2023-08-06T13:41:15;19.30;99.90
7472;DHT22;3777;48.722;8.110;2023-08-06T13:43:42;19.10;99.90
7472;DHT22;3777;48.722;8.110;2023-08-06T13:46:09;19.10;99.90
7472;DHT22;3777;48.722;8.110;2023-08-06T13:48:42;19.20;99.90
7472;DHT22;3777;48.722;8.110;2023-08-06T13:51:09;19.10;99.90
7472;DHT22;3777;48.722;8.110;2023-08-06T13:53:36;19.20;99.90
7472;DHT22;3777;48.722;8.110;2023-08-06T13:56:04;19.40;99.90
7472;DHT22;3777;48.722;8.110;2023-08-06T13:58:31;19.60;99.90
7472;DHT22;3777;48.722;8.110;2023-08-06T14:00:58;19.60;99.90
7472;DHT22;3777;48.722;8.110;2023-08-06T14:03:25;19.60;99.90
7472;DHT22;3777;48.722;8.110;2023-08-06T14:05:54;19.60;99.90
7472;DHT22;3777;48.722;8.110;2023-08-06T14:08:22;19.50;99.90
7472;DHT22;3777;48.722;8.110;2023-08-06T14:10:49;19.40;99.90
7472;DHT22;3777;48.722;8.110;2023-08-06T14:13:16;19.60;99.90
7472;DHT22;3777;48.722;8.110;2023-08-06T14:15:43;19.50;99.90
7472;DHT22;3777;48.722;8.110;2023-08-06T14:18:12;19.50;99.90
7472;DHT22;3777;48.722;8.110;2023-08-06T14:20:39;19.50;99.90
7472;DHT22;3777;48.722;8.110;2023-08-06T14:23:08;19.50;99.90
7472;DHT22;3777;48.722;8.110;2023-08-06T14:25:35;19.40;99.90
7472;DHT22;3777;48.722;8.110;2023-08-06T14:28:02;19.50;99.90
7472;DHT22;3777;48.722;8.110;2023-08-06T14:30:29;19.70;99.90
7472;DHT22;3777;48.722;8.110;2023-08-06T14:32:56;19.70;99.90
7472;DHT22;3777;48.722;8.110;2023-08-06T14:35:24;19.70;99.90
7472;DHT22;3777;48.722;8.110;2023-08-06T14:37:51;19.70;99.90
7472;DHT22;3777;48.722;8.110;2023-08-06T14:40:19;19.80;99.90
7472;DHT22;3777;48.722;8.110;2023-08-06T14:42:46;19.70;99.90
7472;DHT22;3777;48.722;8.110;2023-08-06T14:45:13;19.80;99.90
7472;DHT22;3777;48.722;8.110;2023-08-06T14:47:40;19.70;99.90
7472;DHT22;3777;48.722;8.110;2023-08-06T14:50:08;19.80;99.90
7472;DHT22;3777;48.722;8.110;2023-08-06T14:52:34;19.80;99.90
7472;DHT22;3777;48.722;8.110;2023-08-06T14:55:01;19.80;99.90
7472;DHT22;3777;48.722;8.110;2023-08-06T14:57:30;20.10;99.90
7472;DHT22;3777;48.722;8.110;2023-08-06T14:59:57;20.10;99.90
7472;DHT22;3777;48.722;8.110;2023-08-06T15:02:25;20.20;99.90
7472;DHT22;3777;48.722;8.110;2023-08-06T15:04:53;20.30;99.90
7472;DHT22;3777;48.722;8.110;2023-08-06T15:07:19;20.20;99.90
7472;DHT22;3777;48.722;8.110;2023-08-06T15:09:47;20.20;99.90
7472;DHT22;3777;48.722;8.110;2023-08-06T15:12:14;20.10;99.90
7472;DHT22;3777;48.722;8.110;2023-08-06T15:14:44;19.90;99.90
7472;DHT22;3777;48.722;8.110;2023-08-06T15:17:11;20.00;99.90
7472;DHT22;3777;48.722;8.110;2023-08-06T15:19:38;20.10;99.90
7472;DHT22;3777;48.722;8.110;2023-08-06T15:22:05;20.00;99.90
7472;DHT22;3777;48.722;8.110;2023-08-06T15:24:32;20.00;99.90
7472;DHT22;3777;48.722;8.110;2023-08-06T15:26:59;20.10;99.90
7472;DHT22;3777;48.722;8.110;2023-08-06T15:29:26;20.20;99.90
7472;DHT22;3777;48.722;8.110;2023-08-06T15:31:55;20.10;99.90
7472;DHT22;3777;48.722;8.110;2023-08-06T15:34:22;20.10;99.90
7472;DHT22;3777;48.722;8.110;2023-08-06T15:36:49;20.00;99.90
7472;DHT22;3777;48.722;8.110;2023-08-06T15:39:15;20.00;99.90
7472;DHT22;3777;48.722;8.110;2023-08-06T15:41:42;20.00;99.90
7472;DHT22;3777;48.722;8.110;2023-08-06T15:44:09;20.10;99.90
7472;DHT22;3777;48.722;8.110;2023-08-06T15:46:36;20.10;99.90
7472;DHT22;3777;48.722;8.110;2023-08-06T15:49:05;20.10;99.90
7472;DHT22;3777;48.722;8.110;2023-08-06T15:51:33;20.10;99.90
7472;DHT22;3777;48.722;8.110;2023-08-06T15:54:01;20.20;99.90
7472;DHT22;3777;48.722;8.110;2023-08-06T15:56:29;20.10;99.90
7472;DHT22;3777;48.722;8.110;2023-08-06T15:58:56;20.00;99.90
7472;DHT22;3777;48.722;8.110;2023-08-06T16:01:23;20.00;99.90
7472;DHT22;3777;48.722;8.110;2023-08-06T16:03:50;20.00;99.90
7472;DHT22;3777;48.722;8.110;2023-08-06T16:06:18;19.70;99.90